This is the latest recevied weather packets stored in our database for station/object SQ9PDE-13. If no packets are shown the sender has not sent any weather packets the latest 10 day(s).
| Time | Temp. | Humidity | Pressure | Rain* | Wind** | Luminosity | Snow |
|---|---|---|---|---|---|---|---|
| 1787815885 | 23.89° C | 48% | 1023 hPa | - | - | - | - |
| 1787815823 | 18.89° C | 60% | 1023.3 hPa | - | - | - | - |
| 1787815585 | 22.22° C | 51% | 1023.3 hPa | - | - | - | - |
| 1787815284 | 22.78° C | 51% | 1023.1 hPa | - | - | - | - |
| 1787814984 | 21.67° C | 53% | 1023.4 hPa | - | - | - | - |
| 1787814683 | 21.67° C | 53% | 1023.3 hPa | - | - | - | - |
| 1787814383 | 22.22° C | 53% | 1023.3 hPa | - | - | - | - |
| 1787814370 | 21.67° C | 52% | 1023.3 hPa | - | - | - | - |
| 1787814070 | 22.22° C | 50% | 1023.2 hPa | - | - | - | - |
| 1787813769 | 22.22° C | 51% | 1023.3 hPa | - | - | - | - |
| 1787813469 | 23.33° C | 51% | 1023.1 hPa | - | - | - | - |
| 1787813382 | 16.67° C | 66% | 1023.5 hPa | - | - | - | - |
| 1787813242 | 21.11° C | 55% | 1023.3 hPa | - | - | - | - |
| 1787813207 | 21.11° C | 55% | 1023.3 hPa | - | - | - | - |
| 1787813168 | 21.11° C | 55% | 1023.3 hPa | - | - | - | - |
| 1787812868 | 21.11° C | 55% | 1023.4 hPa | - | - | - | - |
| 1787812620 | 20.56° C | 57% | 1023.4 hPa | - | - | - | - |
| 1787812567 | 20.56° C | 57% | 1023.4 hPa | - | - | - | - |
| 1787812267 | 20° C | 59% | 1023.5 hPa | - | - | - | - |
| 1787812109 | 18.89° C | 59% | 1023.3 hPa | - | - | - | - |
| 1787812011 | 18.89° C | 59% | 1023.3 hPa | - | - | - | - |
| 1787811966 | 18.89° C | 59% | 1023.3 hPa | - | - | - | - |
| 1787811704 | 18.89° C | 60% | 1023.3 hPa | - | - | - | - |
| 1787811666 | 18.89° C | 60% | 1023.3 hPa | - | - | - | - |
| 1787811522 | 18.89° C | 61% | 1023.3 hPa | - | - | - | - |
* Rain since midnight (hover to see other rain measurements)
** Current wind speed in m/s (hover to see current wind gust speed)